sensor_id;sensor_type;location;lat;lon;timestamp;P1;durP1;ratioP1;P2;durP2;ratioP2
44885;SDS011;36669;51.428;21.162;2022-09-03T00:02:40;15.75;;;6.88;;
44885;SDS011;36669;51.428;21.162;2022-09-03T00:05:09;19.92;;;7.78;;
44885;SDS011;36669;51.428;21.162;2022-09-03T00:07:44;15.43;;;6.53;;
44885;SDS011;36669;51.428;21.162;2022-09-03T00:10:44;18.77;;;7.15;;
44885;SDS011;36669;51.428;21.162;2022-09-03T00:13:20;16.63;;;6.88;;
44885;SDS011;36669;51.428;21.162;2022-09-03T00:15:51;16.10;;;6.93;;
44885;SDS011;36669;51.428;21.162;2022-09-03T00:18:23;13.82;;;6.45;;
44885;SDS011;36669;51.428;21.162;2022-09-03T00:20:57;14.93;;;8.00;;
44885;SDS011;36669;51.428;21.162;2022-09-03T00:23:28;20.85;;;8.63;;
44885;SDS011;36669;51.428;21.162;2022-09-03T00:28:37;16.85;;;7.88;;
44885;SDS011;36669;51.428;21.162;2022-09-03T00:33:39;16.13;;;8.55;;
44885;SDS011;36669;51.428;21.162;2022-09-03T00:39:15;18.83;;;7.47;;
44885;SDS011;36669;51.428;21.162;2022-09-03T00:47:32;15.45;;;7.68;;
44885;SDS011;36669;51.428;21.162;2022-09-03T01:01:21;20.13;;;10.82;;
44885;SDS011;36669;51.428;21.162;2022-09-03T01:03:57;18.35;;;8.90;;
44885;SDS011;36669;51.428;21.162;2022-09-03T01:12:52;18.23;;;8.55;;
44885;SDS011;36669;51.428;21.162;2022-09-03T01:27:17;34.67;;;12.50;;
44885;SDS011;36669;51.428;21.162;2022-09-03T01:30:08;19.10;;;10.07;;
44885;SDS011;36669;51.428;21.162;2022-09-03T01:40:55;21.55;;;9.55;;
44885;SDS011;36669;51.428;21.162;2022-09-03T01:43:36;20.25;;;10.27;;
44885;SDS011;36669;51.428;21.162;2022-09-03T01:46:26;19.13;;;10.05;;
44885;SDS011;36669;51.428;21.162;2022-09-03T01:49:12;23.40;;;10.18;;
44885;SDS011;36669;51.428;21.162;2022-09-03T01:51:40;22.00;;;10.45;;
44885;SDS011;36669;51.428;21.162;2022-09-03T02:02:35;16.08;;;9.50;;
44885;SDS011;36669;51.428;21.162;2022-09-03T02:05:20;16.15;;;9.15;;
44885;SDS011;36669;51.428;21.162;2022-09-03T02:07:58;18.25;;;10.10;;
44885;SDS011;36669;51.428;21.162;2022-09-03T02:10:25;17.58;;;10.55;;
44885;SDS011;36669;51.428;21.162;2022-09-03T02:12:54;21.55;;;10.05;;
44885;SDS011;36669;51.428;21.162;2022-09-03T02:15:43;20.67;;;10.68;;
44885;SDS011;36669;51.428;21.162;2022-09-03T02:18:18;17.42;;;10.13;;
44885;SDS011;36669;51.428;21.162;2022-09-03T02:20:51;13.68;;;9.63;;
44885;SDS011;36669;51.428;21.162;2022-09-03T02:23:17;20.02;;;10.93;;
44885;SDS011;36669;51.428;21.162;2022-09-03T02:25:44;16.48;;;9.63;;
44885;SDS011;36669;51.428;21.162;2022-09-03T02:28:14;21.95;;;10.57;;
44885;SDS011;36669;51.428;21.162;2022-09-03T02:30:40;25.17;;;10.98;;
44885;SDS011;36669;51.428;21.162;2022-09-03T02:33:06;18.00;;;10.00;;
44885;SDS011;36669;51.428;21.162;2022-09-03T02:35:32;18.50;;;10.90;;
44885;SDS011;36669;51.428;21.162;2022-09-03T02:38:11;19.67;;;11.05;;
44885;SDS011;36669;51.428;21.162;2022-09-03T02:40:42;19.65;;;10.18;;
44885;SDS011;36669;51.428;21.162;2022-09-03T02:43:12;16.25;;;10.07;;
44885;SDS011;36669;51.428;21.162;2022-09-03T02:45:49;18.02;;;8.80;;
44885;SDS011;36669;51.428;21.162;2022-09-03T02:48:21;17.67;;;9.23;;
44885;SDS011;36669;51.428;21.162;2022-09-03T02:50:48;16.25;;;9.50;;
44885;SDS011;36669;51.428;21.162;2022-09-03T02:53:13;18.30;;;9.88;;
44885;SDS011;36669;51.428;21.162;2022-09-03T02:55:39;17.25;;;9.65;;
44885;SDS011;36669;51.428;21.162;2022-09-03T02:58:05;16.90;;;9.55;;
44885;SDS011;36669;51.428;21.162;2022-09-03T03:00:30;17.88;;;9.57;;
44885;SDS011;36669;51.428;21.162;2022-09-03T03:02:56;16.98;;;9.65;;
44885;SDS011;36669;51.428;21.162;2022-09-03T03:05:24;17.30;;;9.50;;
44885;SDS011;36669;51.428;21.162;2022-09-03T03:07:56;17.55;;;9.27;;
44885;SDS011;36669;51.428;21.162;2022-09-03T03:10:22;15.93;;;9.60;;
44885;SDS011;36669;51.428;21.162;2022-09-03T03:12:47;13.18;;;8.50;;
44885;SDS011;36669;51.428;21.162;2022-09-03T03:15:13;16.40;;;9.88;;
44885;SDS011;36669;51.428;21.162;2022-09-03T03:17:39;18.80;;;9.75;;
44885;SDS011;36669;51.428;21.162;2022-09-03T03:20:04;22.35;;;9.90;;
44885;SDS011;36669;51.428;21.162;2022-09-03T03:22:30;22.92;;;11.23;;
44885;SDS011;36669;51.428;21.162;2022-09-03T03:24:56;30.30;;;15.73;;
44885;SDS011;36669;51.428;21.162;2022-09-03T03:27:21;40.40;;;19.45;;
44885;SDS011;36669;51.428;21.162;2022-09-03T03:29:47;24.40;;;13.57;;
44885;SDS011;36669;51.428;21.162;2022-09-03T03:32:12;30.92;;;13.25;;
44885;SDS011;36669;51.428;21.162;2022-09-03T03:34:38;29.67;;;13.30;;
44885;SDS011;36669;51.428;21.162;2022-09-03T03:37:03;24.55;;;12.55;;
44885;SDS011;36669;51.428;21.162;2022-09-03T03:39:29;26.17;;;13.15;;
44885;SDS011;36669;51.428;21.162;2022-09-03T03:41:54;29.08;;;13.70;;
44885;SDS011;36669;51.428;21.162;2022-09-03T03:44:20;27.75;;;12.00;;
44885;SDS011;36669;51.428;21.162;2022-09-03T03:46:45;20.30;;;11.55;;
44885;SDS011;36669;51.428;21.162;2022-09-03T03:49:11;19.23;;;10.73;;
44885;SDS011;36669;51.428;21.162;2022-09-03T03:51:37;20.63;;;11.18;;
44885;SDS011;36669;51.428;21.162;2022-09-03T03:54:03;20.92;;;11.70;;
44885;SDS011;36669;51.428;21.162;2022-09-03T03:56:29;20.30;;;11.23;;
44885;SDS011;36669;51.428;21.162;2022-09-03T03:58:55;21.45;;;10.00;;
44885;SDS011;36669;51.428;21.162;2022-09-03T04:01:23;21.30;;;10.05;;
44885;SDS011;36669;51.428;21.162;2022-09-03T04:03:50;21.10;;;11.32;;
44885;SDS011;36669;51.428;21.162;2022-09-03T04:06:19;25.33;;;12.10;;
44885;SDS011;36669;51.428;21.162;2022-09-03T04:08:46;25.20;;;12.93;;
44885;SDS011;36669;51.428;21.162;2022-09-03T04:11:13;24.42;;;13.07;;
44885;SDS011;36669;51.428;21.162;2022-09-03T04:13:41;25.90;;;11.88;;
44885;SDS011;36669;51.428;21.162;2022-09-03T04:16:13;25.58;;;11.77;;
44885;SDS011;36669;51.428;21.162;2022-09-03T04:18:40;27.95;;;11.98;;
44885;SDS011;36669;51.428;21.162;2022-09-03T04:21:07;28.35;;;10.80;;
44885;SDS011;36669;51.428;21.162;2022-09-03T04:23:41;22.63;;;10.80;;
44885;SDS011;36669;51.428;21.162;2022-09-03T04:26:09;21.92;;;9.98;;
44885;SDS011;36669;51.428;21.162;2022-09-03T04:28:38;19.77;;;10.23;;
44885;SDS011;36669;51.428;21.162;2022-09-03T04:31:04;20.08;;;10.57;;
44885;SDS011;36669;51.428;21.162;2022-09-03T04:33:32;19.98;;;10.23;;
44885;SDS011;36669;51.428;21.162;2022-09-03T04:36:06;17.25;;;9.40;;
44885;SDS011;36669;51.428;21.162;2022-09-03T04:38:35;19.95;;;9.90;;
44885;SDS011;36669;51.428;21.162;2022-09-03T04:41:03;17.38;;;10.18;;
44885;SDS011;36669;51.428;21.162;2022-09-03T04:43:30;16.92;;;8.55;;
44885;SDS011;36669;51.428;21.162;2022-09-03T04:45:59;14.40;;;8.40;;
44885;SDS011;36669;51.428;21.162;2022-09-03T04:48:26;15.68;;;7.65;;
44885;SDS011;36669;51.428;21.162;2022-09-03T04:50:53;12.98;;;7.88;;
44885;SDS011;36669;51.428;21.162;2022-09-03T04:53:19;14.07;;;8.50;;
44885;SDS011;36669;51.428;21.162;2022-09-03T04:55:45;16.00;;;8.40;;
44885;SDS011;36669;51.428;21.162;2022-09-03T04:58:11;19.70;;;9.48;;
44885;SDS011;36669;51.428;21.162;2022-09-03T05:00:37;42.17;;;22.88;;
44885;SDS011;36669;51.428;21.162;2022-09-03T05:03:02;30.63;;;15.57;;
44885;SDS011;36669;51.428;21.162;2022-09-03T05:05:28;14.00;;;9.48;;
44885;SDS011;36669;51.428;21.162;2022-09-03T05:07:56;17.58;;;8.70;;
44885;SDS011;36669;51.428;21.162;2022-09-03T05:10:22;15.82;;;8.05;;
44885;SDS011;36669;51.428;21.162;2022-09-03T05:13:01;13.45;;;7.88;;
44885;SDS011;36669;51.428;21.162;2022-09-03T05:15:28;14.10;;;7.75;;
44885;SDS011;36669;51.428;21.162;2022-09-03T05:17:56;18.48;;;7.35;;
44885;SDS011;36669;51.428;21.162;2022-09-03T05:20:22;13.07;;;7.05;;
44885;SDS011;36669;51.428;21.162;2022-09-03T05:22:48;15.38;;;6.65;;
44885;SDS011;36669;51.428;21.162;2022-09-03T05:25:13;16.38;;;6.53;;
44885;SDS011;36669;51.428;21.162;2022-09-03T05:27:39;14.77;;;5.82;;
44885;SDS011;36669;51.428;21.162;2022-09-03T05:30:05;19.15;;;5.95;;
44885;SDS011;36669;51.428;21.162;2022-09-03T05:32:30;12.00;;;6.00;;
44885;SDS011;36669;51.428;21.162;2022-09-03T05:34:56;8.88;;;5.22;;
44885;SDS011;36669;51.428;21.162;2022-09-03T05:37:21;14.48;;;5.75;;
44885;SDS011;36669;51.428;21.162;2022-09-03T05:39:47;16.45;;;5.50;;
44885;SDS011;36669;51.428;21.162;2022-09-03T05:42:13;12.27;;;5.45;;
44885;SDS011;36669;51.428;21.162;2022-09-03T05:44:38;9.52;;;6.10;;
44885;SDS011;36669;51.428;21.162;2022-09-03T05:47:04;9.30;;;5.57;;
44885;SDS011;36669;51.428;21.162;2022-09-03T05:49:29;11.85;;;5.72;;
44885;SDS011;36669;51.428;21.162;2022-09-03T05:51:55;14.60;;;5.88;;
44885;SDS011;36669;51.428;21.162;2022-09-03T05:54:20;18.30;;;5.60;;
44885;SDS011;36669;51.428;21.162;2022-09-03T05:56:46;13.13;;;5.45;;
44885;SDS011;36669;51.428;21.162;2022-09-03T05:59:12;15.13;;;5.18;;
44885;SDS011;36669;51.428;21.162;2022-09-03T06:01:38;13.75;;;5.28;;
44885;SDS011;36669;51.428;21.162;2022-09-03T06:04:06;16.90;;;6.22;;
44885;SDS011;36669;51.428;21.162;2022-09-03T06:06:37;10.63;;;5.78;;
44885;SDS011;36669;51.428;21.162;2022-09-03T06:09:13;10.35;;;6.10;;
44885;SDS011;36669;51.428;21.162;2022-09-03T06:14:10;10.30;;;5.30;;
44885;SDS011;36669;51.428;21.162;2022-09-03T06:16:37;13.02;;;5.32;;
44885;SDS011;36669;51.428;21.162;2022-09-03T06:19:08;10.23;;;4.93;;
44885;SDS011;36669;51.428;21.162;2022-09-03T06:21:34;12.30;;;4.97;;
44885;SDS011;36669;51.428;21.162;2022-09-03T06:24:01;9.98;;;5.05;;
44885;SDS011;36669;51.428;21.162;2022-09-03T06:26:27;8.15;;;5.03;;
44885;SDS011;36669;51.428;21.162;2022-09-03T06:28:53;14.98;;;5.25;;
44885;SDS011;36669;51.428;21.162;2022-09-03T06:31:19;11.90;;;5.22;;
44885;SDS011;36669;51.428;21.162;2022-09-03T06:33:46;14.88;;;5.32;;
44885;SDS011;36669;51.428;21.162;2022-09-03T06:36:13;13.30;;;5.32;;
44885;SDS011;36669;51.428;21.162;2022-09-03T06:38:43;12.68;;;5.80;;
44885;SDS011;36669;51.428;21.162;2022-09-03T06:41:10;13.82;;;5.43;;
44885;SDS011;36669;51.428;21.162;2022-09-03T06:43:39;8.60;;;5.50;;
44885;SDS011;36669;51.428;21.162;2022-09-03T06:46:09;14.95;;;6.13;;
44885;SDS011;36669;51.428;21.162;2022-09-03T06:48:39;12.25;;;5.60;;
44885;SDS011;36669;51.428;21.162;2022-09-03T06:51:07;16.33;;;6.40;;
44885;SDS011;36669;51.428;21.162;2022-09-03T06:53:40;12.88;;;6.72;;
44885;SDS011;36669;51.428;21.162;2022-09-03T06:56:09;18.42;;;7.45;;
44885;SDS011;36669;51.428;21.162;2022-09-03T06:58:37;16.10;;;7.75;;
44885;SDS011;36669;51.428;21.162;2022-09-03T07:01:04;23.40;;;7.88;;
44885;SDS011;36669;51.428;21.162;2022-09-03T07:03:32;25.33;;;8.20;;
44885;SDS011;36669;51.428;21.162;2022-09-03T07:05:59;15.40;;;8.18;;
44885;SDS011;36669;51.428;21.162;2022-09-03T07:08:29;15.80;;;7.82;;
44885;SDS011;36669;51.428;21.162;2022-09-03T07:10:55;17.85;;;8.02;;
44885;SDS011;36669;51.428;21.162;2022-09-03T07:13:20;19.00;;;8.30;;
44885;SDS011;36669;51.428;21.162;2022-09-03T07:15:46;41.78;;;9.48;;
44885;SDS011;36669;51.428;21.162;2022-09-03T07:18:11;19.42;;;9.27;;
44885;SDS011;36669;51.428;21.162;2022-09-03T07:20:37;17.90;;;10.13;;
44885;SDS011;36669;51.428;21.162;2022-09-03T07:23:02;21.00;;;10.23;;
44885;SDS011;36669;51.428;21.162;2022-09-03T07:25:28;19.73;;;8.32;;
44885;SDS011;36669;51.428;21.162;2022-09-03T07:27:53;19.58;;;8.20;;
44885;SDS011;36669;51.428;21.162;2022-09-03T07:30:19;19.40;;;7.95;;
44885;SDS011;36669;51.428;21.162;2022-09-03T07:32:45;20.85;;;8.23;;
44885;SDS011;36669;51.428;21.162;2022-09-03T07:35:11;17.73;;;8.45;;
44885;SDS011;36669;51.428;21.162;2022-09-03T07:37:39;18.50;;;8.13;;
44885;SDS011;36669;51.428;21.162;2022-09-03T07:40:06;21.13;;;8.70;;
44885;SDS011;36669;51.428;21.162;2022-09-03T07:42:32;19.75;;;8.23;;
44885;SDS011;36669;51.428;21.162;2022-09-03T07:44:58;19.65;;;8.98;;
44885;SDS011;36669;51.428;21.162;2022-09-03T07:47:23;18.60;;;8.35;;
44885;SDS011;36669;51.428;21.162;2022-09-03T07:49:49;21.73;;;8.65;;
44885;SDS011;36669;51.428;21.162;2022-09-03T07:52:14;18.60;;;8.27;;
44885;SDS011;36669;51.428;21.162;2022-09-03T07:54:40;15.95;;;8.25;;
44885;SDS011;36669;51.428;21.162;2022-09-03T07:57:05;16.95;;;7.78;;
44885;SDS011;36669;51.428;21.162;2022-09-03T07:59:31;13.15;;;7.35;;
44885;SDS011;36669;51.428;21.162;2022-09-03T08:01:56;18.35;;;7.85;;
44885;SDS011;36669;51.428;21.162;2022-09-03T08:04:22;16.85;;;7.80;;
44885;SDS011;36669;51.428;21.162;2022-09-03T08:06:47;19.33;;;7.60;;
44885;SDS011;36669;51.428;21.162;2022-09-03T08:09:13;16.25;;;8.13;;
44885;SDS011;36669;51.428;21.162;2022-09-03T08:11:39;20.13;;;8.38;;
44885;SDS011;36669;51.428;21.162;2022-09-03T08:14:07;16.88;;;8.07;;
44885;SDS011;36669;51.428;21.162;2022-09-03T08:16:44;14.23;;;7.65;;
44885;SDS011;36669;51.428;21.162;2022-09-03T08:19:10;16.75;;;8.10;;
44885;SDS011;36669;51.428;21.162;2022-09-03T08:21:36;16.60;;;8.25;;
44885;SDS011;36669;51.428;21.162;2022-09-03T08:24:01;19.00;;;8.50;;
44885;SDS011;36669;51.428;21.162;2022-09-03T08:26:28;13.90;;;8.00;;
44885;SDS011;36669;51.428;21.162;2022-09-03T08:28:55;18.90;;;8.27;;
44885;SDS011;36669;51.428;21.162;2022-09-03T08:31:22;16.27;;;8.35;;
44885;SDS011;36669;51.428;21.162;2022-09-03T08:33:50;16.35;;;8.38;;
44885;SDS011;36669;51.428;21.162;2022-09-03T08:36:18;16.70;;;8.30;;
44885;SDS011;36669;51.428;21.162;2022-09-03T08:38:48;15.48;;;7.68;;
44885;SDS011;36669;51.428;21.162;2022-09-03T08:41:15;23.30;;;8.30;;
44885;SDS011;36669;51.428;21.162;2022-09-03T08:46:32;22.85;;;9.35;;
44885;SDS011;36669;51.428;21.162;2022-09-03T08:49:05;15.77;;;7.65;;
44885;SDS011;36669;51.428;21.162;2022-09-03T08:51:33;16.65;;;8.68;;
44885;SDS011;36669;51.428;21.162;2022-09-03T08:53:59;14.98;;;7.43;;
44885;SDS011;36669;51.428;21.162;2022-09-03T08:56:26;16.10;;;8.45;;
44885;SDS011;36669;51.428;21.162;2022-09-03T08:58:54;17.38;;;7.57;;
44885;SDS011;36669;51.428;21.162;2022-09-03T09:04:06;15.52;;;7.07;;
44885;SDS011;36669;51.428;21.162;2022-09-03T09:07:06;12.93;;;6.75;;
44885;SDS011;36669;51.428;21.162;2022-09-03T09:09:43;14.80;;;6.82;;
44885;SDS011;36669;51.428;21.162;2022-09-03T09:18:19;9.85;;;5.63;;
44885;SDS011;36669;51.428;21.162;2022-09-03T09:21:15;7.88;;;4.60;;
44885;SDS011;36669;51.428;21.162;2022-09-03T09:23:51;8.15;;;4.93;;
44885;SDS011;36669;51.428;21.162;2022-09-03T09:26:17;9.43;;;4.10;;
44885;SDS011;36669;51.428;21.162;2022-09-03T09:28:45;8.13;;;4.63;;
44885;SDS011;36669;51.428;21.162;2022-09-03T09:31:14;12.52;;;5.30;;
44885;SDS011;36669;51.428;21.162;2022-09-03T09:33:40;6.75;;;3.40;;
44885;SDS011;36669;51.428;21.162;2022-09-03T09:36:10;10.70;;;3.95;;
44885;SDS011;36669;51.428;21.162;2022-09-03T09:38:38;9.18;;;4.28;;
44885;SDS011;36669;51.428;21.162;2022-09-03T09:41:10;6.95;;;3.97;;
44885;SDS011;36669;51.428;21.162;2022-09-03T09:43:40;8.10;;;4.05;;
44885;SDS011;36669;51.428;21.162;2022-09-03T09:46:14;7.70;;;4.13;;
44885;SDS011;36669;51.428;21.162;2022-09-03T09:48:52;11.25;;;4.28;;
44885;SDS011;36669;51.428;21.162;2022-09-03T09:51:29;9.80;;;3.80;;
44885;SDS011;36669;51.428;21.162;2022-09-03T09:54:14;7.13;;;3.65;;
44885;SDS011;36669;51.428;21.162;2022-09-03T09:56:41;11.27;;;4.63;;
44885;SDS011;36669;51.428;21.162;2022-09-03T09:59:08;7.78;;;4.50;;
44885;SDS011;36669;51.428;21.162;2022-09-03T10:01:35;11.75;;;4.07;;
44885;SDS011;36669;51.428;21.162;2022-09-03T10:04:10;8.88;;;4.35;;
44885;SDS011;36669;51.428;21.162;2022-09-03T10:06:37;10.90;;;4.85;;
44885;SDS011;36669;51.428;21.162;2022-09-03T10:11:47;13.55;;;5.07;;
44885;SDS011;36669;51.428;21.162;2022-09-03T10:14:54;13.02;;;5.00;;
44885;SDS011;36669;51.428;21.162;2022-09-03T10:17:59;12.05;;;4.40;;
44885;SDS011;36669;51.428;21.162;2022-09-03T10:23:05;8.90;;;4.03;;
44885;SDS011;36669;51.428;21.162;2022-09-03T10:28:15;8.18;;;3.50;;
44885;SDS011;36669;51.428;21.162;2022-09-03T10:33:23;7.82;;;3.00;;
44885;SDS011;36669;51.428;21.162;2022-09-03T10:36:01;5.55;;;2.90;;
44885;SDS011;36669;51.428;21.162;2022-09-03T10:38:52;7.70;;;3.05;;
44885;SDS011;36669;51.428;21.162;2022-09-03T10:50:13;7.63;;;3.08;;
44885;SDS011;36669;51.428;21.162;2022-09-03T10:55:37;7.25;;;3.72;;
44885;SDS011;36669;51.428;21.162;2022-09-03T11:11:59;8.77;;;4.18;;
44885;SDS011;36669;51.428;21.162;2022-09-03T11:18:03;7.38;;;3.00;;
44885;SDS011;36669;51.428;21.162;2022-09-03T11:20:38;3.65;;;2.30;;
44885;SDS011;36669;51.428;21.162;2022-09-03T11:23:04;6.25;;;2.67;;
44885;SDS011;36669;51.428;21.162;2022-09-03T11:25:34;4.70;;;2.50;;
44885;SDS011;36669;51.428;21.162;2022-09-03T11:33:59;6.20;;;3.22;;
44885;SDS011;36669;51.428;21.162;2022-09-03T11:36:31;4.53;;;2.60;;
44885;SDS011;36669;51.428;21.162;2022-09-03T11:39:11;4.50;;;2.40;;
44885;SDS011;36669;51.428;21.162;2022-09-03T11:41:42;7.80;;;3.22;;
44885;SDS011;36669;51.428;21.162;2022-09-03T11:44:16;7.65;;;2.85;;
44885;SDS011;36669;51.428;21.162;2022-09-03T11:46:52;2.75;;;1.98;;
44885;SDS011;36669;51.428;21.162;2022-09-03T11:49:29;5.32;;;3.20;;
44885;SDS011;36669;51.428;21.162;2022-09-03T11:52:00;4.35;;;2.50;;
44885;SDS011;36669;51.428;21.162;2022-09-03T11:54:30;2.53;;;1.80;;
44885;SDS011;36669;51.428;21.162;2022-09-03T11:57:06;6.30;;;2.30;;
44885;SDS011;36669;51.428;21.162;2022-09-03T11:59:37;5.10;;;2.33;;
44885;SDS011;36669;51.428;21.162;2022-09-03T12:07:40;3.58;;;1.90;;
44885;SDS011;36669;51.428;21.162;2022-09-03T12:17:53;2.28;;;1.65;;
44885;SDS011;36669;51.428;21.162;2022-09-03T12:20:26;2.67;;;1.67;;
44885;SDS011;36669;51.428;21.162;2022-09-03T12:22:52;3.72;;;1.50;;
44885;SDS011;36669;51.428;21.162;2022-09-03T12:25:17;4.70;;;1.20;;
44885;SDS011;36669;51.428;21.162;2022-09-03T12:27:43;3.83;;;1.60;;
44885;SDS011;36669;51.428;21.162;2022-09-03T12:30:17;3.53;;;1.50;;
44885;SDS011;36669;51.428;21.162;2022-09-03T12:32:45;3.25;;;1.60;;
44885;SDS011;36669;51.428;21.162;2022-09-03T12:35:15;2.65;;;1.70;;
44885;SDS011;36669;51.428;21.162;2022-09-03T12:37:42;7.97;;;1.40;;
44885;SDS011;36669;51.428;21.162;2022-09-03T12:40:15;3.08;;;1.88;;
44885;SDS011;36669;51.428;21.162;2022-09-03T12:42:45;4.88;;;1.92;;
44885;SDS011;36669;51.428;21.162;2022-09-03T12:45:12;4.80;;;2.33;;
44885;SDS011;36669;51.428;21.162;2022-09-03T12:47:38;4.78;;;1.90;;
44885;SDS011;36669;51.428;21.162;2022-09-03T12:50:05;1.80;;;1.27;;
44885;SDS011;36669;51.428;21.162;2022-09-03T12:55:13;3.22;;;1.40;;
44885;SDS011;36669;51.428;21.162;2022-09-03T12:57:53;1.83;;;1.33;;
44885;SDS011;36669;51.428;21.162;2022-09-03T13:00:21;2.58;;;1.20;;
44885;SDS011;36669;51.428;21.162;2022-09-03T13:05:19;3.22;;;1.60;;
44885;SDS011;36669;51.428;21.162;2022-09-03T13:07:50;2.10;;;1.40;;
44885;SDS011;36669;51.428;21.162;2022-09-03T13:10:23;3.92;;;1.52;;
44885;SDS011;36669;51.428;21.162;2022-09-03T13:12:58;3.80;;;1.85;;
44885;SDS011;36669;51.428;21.162;2022-09-03T13:15:25;4.30;;;1.60;;
44885;SDS011;36669;51.428;21.162;2022-09-03T13:25:52;3.53;;;1.45;;
44885;SDS011;36669;51.428;21.162;2022-09-03T13:31:44;6.88;;;1.70;;
44885;SDS011;36669;51.428;21.162;2022-09-03T13:34:25;2.50;;;1.70;;
44885;SDS011;36669;51.428;21.162;2022-09-03T13:36:58;4.68;;;1.77;;
44885;SDS011;36669;51.428;21.162;2022-09-03T13:40:02;7.63;;;1.90;;
44885;SDS011;36669;51.428;21.162;2022-09-03T13:42:39;3.72;;;1.92;;
44885;SDS011;36669;51.428;21.162;2022-09-03T13:47:47;7.20;;;2.00;;
44885;SDS011;36669;51.428;21.162;2022-09-03T13:50:21;5.07;;;2.53;;
44885;SDS011;36669;51.428;21.162;2022-09-03T13:55:36;6.50;;;2.72;;
44885;SDS011;36669;51.428;21.162;2022-09-03T14:01:20;6.00;;;2.72;;
44885;SDS011;36669;51.428;21.162;2022-09-03T14:09:36;5.70;;;2.88;;
44885;SDS011;36669;51.428;21.162;2022-09-03T14:14:55;4.50;;;3.22;;
44885;SDS011;36669;51.428;21.162;2022-09-03T14:17:43;8.32;;;3.42;;
44885;SDS011;36669;51.428;21.162;2022-09-03T14:20:20;8.88;;;3.05;;
44885;SDS011;36669;51.428;21.162;2022-09-03T14:25:38;7.53;;;3.15;;
44885;SDS011;36669;51.428;21.162;2022-09-03T14:28:14;8.95;;;3.47;;
44885;SDS011;36669;51.428;21.162;2022-09-03T14:39:16;8.52;;;4.63;;
44885;SDS011;36669;51.428;21.162;2022-09-03T14:42:08;7.07;;;3.75;;
44885;SDS011;36669;51.428;21.162;2022-09-03T14:53:20;8.02;;;4.65;;
44885;SDS011;36669;51.428;21.162;2022-09-03T15:01:32;11.43;;;3.70;;
44885;SDS011;36669;51.428;21.162;2022-09-03T15:12:02;10.15;;;4.47;;
44885;SDS011;36669;51.428;21.162;2022-09-03T15:31:02;10.50;;;5.18;;
44885;SDS011;36669;51.428;21.162;2022-09-03T15:33:51;8.82;;;4.65;;
44885;SDS011;36669;51.428;21.162;2022-09-03T15:36:25;8.77;;;5.15;;
44885;SDS011;36669;51.428;21.162;2022-09-03T15:38:59;7.53;;;5.05;;
44885;SDS011;36669;51.428;21.162;2022-09-03T15:44:40;8.85;;;5.53;;
44885;SDS011;36669;51.428;21.162;2022-09-03T15:47:12;10.27;;;5.50;;
44885;SDS011;36669;51.428;21.162;2022-09-03T15:49:57;9.87;;;5.60;;
44885;SDS011;36669;51.428;21.162;2022-09-03T15:54:59;9.98;;;4.82;;
44885;SDS011;36669;51.428;21.162;2022-09-03T16:00:16;12.10;;;6.97;;
44885;SDS011;36669;51.428;21.162;2022-09-03T16:05:40;13.20;;;4.93;;
44885;SDS011;36669;51.428;21.162;2022-09-03T16:16:01;8.27;;;5.40;;
44885;SDS011;36669;51.428;21.162;2022-09-03T16:18:42;10.77;;;5.57;;
44885;SDS011;36669;51.428;21.162;2022-09-03T16:21:22;14.32;;;5.45;;
44885;SDS011;36669;51.428;21.162;2022-09-03T16:23:57;7.40;;;5.55;;
44885;SDS011;36669;51.428;21.162;2022-09-03T16:32:22;13.10;;;5.30;;
44885;SDS011;36669;51.428;21.162;2022-09-03T16:39:56;11.73;;;5.38;;
44885;SDS011;36669;51.428;21.162;2022-09-03T16:42:39;9.60;;;5.90;;
44885;SDS011;36669;51.428;21.162;2022-09-03T16:45:29;19.02;;;11.55;;
44885;SDS011;36669;51.428;21.162;2022-09-03T16:50:39;12.38;;;6.97;;
44885;SDS011;36669;51.428;21.162;2022-09-03T17:07:24;24.92;;;10.20;;
44885;SDS011;36669;51.428;21.162;2022-09-03T17:10:06;23.70;;;14.50;;
44885;SDS011;36669;51.428;21.162;2022-09-03T17:21:36;12.40;;;7.03;;
44885;SDS011;36669;51.428;21.162;2022-09-03T17:27:11;13.30;;;6.10;;
44885;SDS011;36669;51.428;21.162;2022-09-03T17:35:37;13.07;;;6.45;;
44885;SDS011;36669;51.428;21.162;2022-09-03T17:44:04;14.07;;;6.88;;
44885;SDS011;36669;51.428;21.162;2022-09-03T17:47:08;15.02;;;7.60;;
44885;SDS011;36669;51.428;21.162;2022-09-03T17:49:45;14.93;;;7.90;;
44885;SDS011;36669;51.428;21.162;2022-09-03T17:54:50;12.93;;;7.15;;
44885;SDS011;36669;51.428;21.162;2022-09-03T18:00:04;14.00;;;6.22;;
44885;SDS011;36669;51.428;21.162;2022-09-03T18:02:32;8.85;;;5.43;;
44885;SDS011;36669;51.428;21.162;2022-09-03T18:05:18;17.38;;;8.75;;
44885;SDS011;36669;51.428;21.162;2022-09-03T18:08:22;23.65;;;9.95;;
44885;SDS011;36669;51.428;21.162;2022-09-03T18:16:44;14.75;;;7.93;;
44885;SDS011;36669;51.428;21.162;2022-09-03T18:21:54;14.20;;;7.80;;
44885;SDS011;36669;51.428;21.162;2022-09-03T18:24:40;21.77;;;7.50;;
44885;SDS011;36669;51.428;21.162;2022-09-03T18:27:18;17.13;;;7.25;;
44885;SDS011;36669;51.428;21.162;2022-09-03T18:29:56;21.80;;;8.23;;
44885;SDS011;36669;51.428;21.162;2022-09-03T18:32:26;21.17;;;8.02;;
44885;SDS011;36669;51.428;21.162;2022-09-03T18:34:53;16.42;;;7.75;;
44885;SDS011;36669;51.428;21.162;2022-09-03T18:37:20;26.42;;;8.60;;
44885;SDS011;36669;51.428;21.162;2022-09-03T18:39:47;19.67;;;8.40;;
44885;SDS011;36669;51.428;21.162;2022-09-03T18:42:25;16.35;;;8.52;;
44885;SDS011;36669;51.428;21.162;2022-09-03T18:50:12;15.75;;;8.18;;
44885;SDS011;36669;51.428;21.162;2022-09-03T18:55:35;19.13;;;7.93;;
44885;SDS011;36669;51.428;21.162;2022-09-03T19:01:05;20.98;;;7.72;;
44885;SDS011;36669;51.428;21.162;2022-09-03T19:09:19;21.67;;;8.80;;
44885;SDS011;36669;51.428;21.162;2022-09-03T19:20:26;16.30;;;8.57;;
44885;SDS011;36669;51.428;21.162;2022-09-03T19:22:54;15.52;;;8.38;;
44885;SDS011;36669;51.428;21.162;2022-09-03T19:25:20;14.82;;;8.73;;
44885;SDS011;36669;51.428;21.162;2022-09-03T19:27:50;15.95;;;8.27;;
44885;SDS011;36669;51.428;21.162;2022-09-03T19:33:03;22.77;;;11.73;;
44885;SDS011;36669;51.428;21.162;2022-09-03T19:35:43;19.35;;;9.82;;
44885;SDS011;36669;51.428;21.162;2022-09-03T19:41:36;25.30;;;9.50;;
44885;SDS011;36669;51.428;21.162;2022-09-03T19:46:58;21.95;;;10.30;;
44885;SDS011;36669;51.428;21.162;2022-09-03T19:54:59;21.38;;;10.50;;
44885;SDS011;36669;51.428;21.162;2022-09-03T19:57:26;22.15;;;11.98;;
44885;SDS011;36669;51.428;21.162;2022-09-03T19:59:53;20.88;;;10.07;;
44885;SDS011;36669;51.428;21.162;2022-09-03T20:02:20;20.17;;;10.77;;
44885;SDS011;36669;51.428;21.162;2022-09-03T20:04:49;19.98;;;10.20;;
44885;SDS011;36669;51.428;21.162;2022-09-03T20:07:21;18.83;;;9.77;;
44885;SDS011;36669;51.428;21.162;2022-09-03T20:09:47;16.95;;;9.48;;
44885;SDS011;36669;51.428;21.162;2022-09-03T20:12:15;21.08;;;10.55;;
44885;SDS011;36669;51.428;21.162;2022-09-03T20:14:44;25.73;;;10.25;;
44885;SDS011;36669;51.428;21.162;2022-09-03T20:17:26;24.10;;;9.50;;
44885;SDS011;36669;51.428;21.162;2022-09-03T20:20:06;13.75;;;6.75;;
44885;SDS011;36669;51.428;21.162;2022-09-03T20:22:45;17.50;;;9.35;;
44885;SDS011;36669;51.428;21.162;2022-09-03T20:25:33;20.35;;;9.02;;
44885;SDS011;36669;51.428;21.162;2022-09-03T20:45:21;14.35;;;8.43;;